sensor_id;sensor_type;location;lat;lon;timestamp;temperature;humidity
68354;DHT22;55274;43.060;25.618;2023-02-26T00:01:02;14.60;73.10
68354;DHT22;55274;43.060;25.618;2023-02-26T00:03:28;14.50;73.20
68354;DHT22;55274;43.060;25.618;2023-02-26T00:05:59;14.50;73.10
68354;DHT22;55274;43.060;25.618;2023-02-26T00:08:26;14.50;73.50
68354;DHT22;55274;43.060;25.618;2023-02-26T00:10:52;14.60;72.10
68354;DHT22;55274;43.060;25.618;2023-02-26T00:13:19;14.70;71.70
68354;DHT22;55274;43.060;25.618;2023-02-26T00:15:47;14.70;71.30
68354;DHT22;55274;43.060;25.618;2023-02-26T00:18:15;14.70;71.60
68354;DHT22;55274;43.060;25.618;2023-02-26T00:20:41;14.70;70.90
68354;DHT22;55274;43.060;25.618;2023-02-26T00:23:11;14.80;70.20
68354;DHT22;55274;43.060;25.618;2023-02-26T00:25:41;14.80;70.10
68354;DHT22;55274;43.060;25.618;2023-02-26T00:28:08;14.90;69.80
68354;DHT22;55274;43.060;25.618;2023-02-26T00:30:34;14.90;70.00
68354;DHT22;55274;43.060;25.618;2023-02-26T00:33:00;14.90;69.50
68354;DHT22;55274;43.060;25.618;2023-02-26T00:35:27;15.00;69.60
68354;DHT22;55274;43.060;25.618;2023-02-26T00:38:08;15.00;69.90
68354;DHT22;55274;43.060;25.618;2023-02-26T00:40:48;15.00;70.20
68354;DHT22;55274;43.060;25.618;2023-02-26T00:43:23;14.80;70.70
68354;DHT22;55274;43.060;25.618;2023-02-26T00:48:54;14.70;71.80
68354;DHT22;55274;43.060;25.618;2023-02-26T00:51:31;14.70;72.00
68354;DHT22;55274;43.060;25.618;2023-02-26T00:54:22;14.60;72.30
68354;DHT22;55274;43.060;25.618;2023-02-26T00:56:49;14.50;72.90
68354;DHT22;55274;43.060;25.618;2023-02-26T00:59:16;14.50;73.40
68354;DHT22;55274;43.060;25.618;2023-02-26T01:01:42;14.40;73.80
68354;DHT22;55274;43.060;25.618;2023-02-26T01:04:09;14.40;73.60
68354;DHT22;55274;43.060;25.618;2023-02-26T01:06:43;14.30;73.90
68354;DHT22;55274;43.060;25.618;2023-02-26T01:09:13;14.20;74.30
68354;DHT22;55274;43.060;25.618;2023-02-26T01:11:40;14.10;74.40
68354;DHT22;55274;43.060;25.618;2023-02-26T01:14:07;14.10;74.80
68354;DHT22;55274;43.060;25.618;2023-02-26T01:16:40;14.10;75.10
68354;DHT22;55274;43.060;25.618;2023-02-26T01:21:50;14.20;74.00
68354;DHT22;55274;43.060;25.618;2023-02-26T01:24:22;14.20;73.60
68354;DHT22;55274;43.060;25.618;2023-02-26T01:26:49;14.30;73.60
68354;DHT22;55274;43.060;25.618;2023-02-26T01:29:15;14.20;73.20
68354;DHT22;55274;43.060;25.618;2023-02-26T01:31:58;14.20;73.20
68354;DHT22;55274;43.060;25.618;2023-02-26T01:34:35;14.30;73.00
68354;DHT22;55274;43.060;25.618;2023-02-26T01:42:42;14.50;72.20
68354;DHT22;55274;43.060;25.618;2023-02-26T01:45:12;14.50;71.70
68354;DHT22;55274;43.060;25.618;2023-02-26T01:50:29;14.50;71.10
68354;DHT22;55274;43.060;25.618;2023-02-26T01:53:18;14.60;70.40
68354;DHT22;55274;43.060;25.618;2023-02-26T01:55:56;14.80;69.80
68354;DHT22;55274;43.060;25.618;2023-02-26T01:58:25;15.00;68.40
68354;DHT22;55274;43.060;25.618;2023-02-26T02:00:52;14.90;68.10
68354;DHT22;55274;43.060;25.618;2023-02-26T02:03:19;14.90;68.10
68354;DHT22;55274;43.060;25.618;2023-02-26T02:06:09;15.00;67.80
68354;DHT22;55274;43.060;25.618;2023-02-26T02:08:37;15.10;67.20
68354;DHT22;55274;43.060;25.618;2023-02-26T02:11:06;15.10;66.70
68354;DHT22;55274;43.060;25.618;2023-02-26T02:24:53;15.50;64.80
68354;DHT22;55274;43.060;25.618;2023-02-26T02:30:37;15.50;65.10
68354;DHT22;55274;43.060;25.618;2023-02-26T02:33:14;15.50;65.40
68354;DHT22;55274;43.060;25.618;2023-02-26T02:36:04;15.50;65.50
68354;DHT22;55274;43.060;25.618;2023-02-26T02:38:37;15.50;66.40
68354;DHT22;55274;43.060;25.618;2023-02-26T02:41:17;15.50;66.90
68354;DHT22;55274;43.060;25.618;2023-02-26T02:43:44;15.40;67.60
68354;DHT22;55274;43.060;25.618;2023-02-26T02:46:17;15.30;67.90
68354;DHT22;55274;43.060;25.618;2023-02-26T02:48:48;15.30;68.30
68354;DHT22;55274;43.060;25.618;2023-02-26T02:51:25;15.20;68.40
68354;DHT22;55274;43.060;25.618;2023-02-26T02:53:56;15.20;68.50
68354;DHT22;55274;43.060;25.618;2023-02-26T02:56:28;15.10;68.80
68354;DHT22;55274;43.060;25.618;2023-02-26T03:02:20;15.00;69.20
68354;DHT22;55274;43.060;25.618;2023-02-26T03:04:47;14.90;69.40
68354;DHT22;55274;43.060;25.618;2023-02-26T03:07:14;14.90;69.70
68354;DHT22;55274;43.060;25.618;2023-02-26T03:09:40;14.80;69.60
68354;DHT22;55274;43.060;25.618;2023-02-26T03:12:06;14.90;69.00
68354;DHT22;55274;43.060;25.618;2023-02-26T03:14:32;14.90;69.10
68354;DHT22;55274;43.060;25.618;2023-02-26T03:17:18;14.90;69.30
68354;DHT22;55274;43.060;25.618;2023-02-26T03:20:19;14.90;69.50
68354;DHT22;55274;43.060;25.618;2023-02-26T03:25:34;15.10;68.10
68354;DHT22;55274;43.060;25.618;2023-02-26T03:33:27;15.20;68.20
68354;DHT22;55274;43.060;25.618;2023-02-26T03:36:00;15.10;68.80
68354;DHT22;55274;43.060;25.618;2023-02-26T03:38:35;15.20;68.90
68354;DHT22;55274;43.060;25.618;2023-02-26T03:41:09;15.10;69.50
68354;DHT22;55274;43.060;25.618;2023-02-26T03:43:37;15.00;69.90
68354;DHT22;55274;43.060;25.618;2023-02-26T03:46:08;15.00;70.50
68354;DHT22;55274;43.060;25.618;2023-02-26T03:48:36;14.90;71.30
68354;DHT22;55274;43.060;25.618;2023-02-26T03:51:09;14.90;71.50
68354;DHT22;55274;43.060;25.618;2023-02-26T03:53:49;14.80;71.40
68354;DHT22;55274;43.060;25.618;2023-02-26T03:56:26;14.90;71.70
68354;DHT22;55274;43.060;25.618;2023-02-26T03:58:54;14.90;71.90
68354;DHT22;55274;43.060;25.618;2023-02-26T04:01:22;14.90;71.80
68354;DHT22;55274;43.060;25.618;2023-02-26T04:04:04;14.80;71.80
68354;DHT22;55274;43.060;25.618;2023-02-26T04:06:33;14.90;71.80
68354;DHT22;55274;43.060;25.618;2023-02-26T04:09:03;14.90;71.80
68354;DHT22;55274;43.060;25.618;2023-02-26T04:11:29;14.90;71.50
68354;DHT22;55274;43.060;25.618;2023-02-26T04:13:56;15.00;71.30
68354;DHT22;55274;43.060;25.618;2023-02-26T04:16:22;14.90;71.30
68354;DHT22;55274;43.060;25.618;2023-02-26T04:18:48;14.90;71.60
68354;DHT22;55274;43.060;25.618;2023-02-26T04:21:17;14.90;71.70
68354;DHT22;55274;43.060;25.618;2023-02-26T04:23:44;14.90;71.80
68354;DHT22;55274;43.060;25.618;2023-02-26T04:26:10;15.00;71.70
68354;DHT22;55274;43.060;25.618;2023-02-26T04:28:38;15.00;71.80
68354;DHT22;55274;43.060;25.618;2023-02-26T04:31:05;15.00;71.80
68354;DHT22;55274;43.060;25.618;2023-02-26T04:33:32;15.00;71.90
68354;DHT22;55274;43.060;25.618;2023-02-26T04:35:59;15.10;71.80
68354;DHT22;55274;43.060;25.618;2023-02-26T04:38:25;15.00;72.50
68354;DHT22;55274;43.060;25.618;2023-02-26T04:40:51;15.00;72.60
68354;DHT22;55274;43.060;25.618;2023-02-26T04:43:17;14.90;72.80
68354;DHT22;55274;43.060;25.618;2023-02-26T04:45:46;14.90;73.60
68354;DHT22;55274;43.060;25.618;2023-02-26T04:48:13;14.80;73.90
68354;DHT22;55274;43.060;25.618;2023-02-26T04:50:40;14.70;74.90
68354;DHT22;55274;43.060;25.618;2023-02-26T04:53:06;14.70;74.80
68354;DHT22;55274;43.060;25.618;2023-02-26T04:55:33;14.80;75.00
68354;DHT22;55274;43.060;25.618;2023-02-26T04:57:59;14.70;75.10
68354;DHT22;55274;43.060;25.618;2023-02-26T05:00:25;14.80;74.90
68354;DHT22;55274;43.060;25.618;2023-02-26T05:02:51;14.80;75.70
68354;DHT22;55274;43.060;25.618;2023-02-26T05:05:17;14.80;75.60
68354;DHT22;55274;43.060;25.618;2023-02-26T05:07:43;14.70;76.00
68354;DHT22;55274;43.060;25.618;2023-02-26T05:10:09;14.70;76.40
68354;DHT22;55274;43.060;25.618;2023-02-26T05:12:36;14.70;76.70
68354;DHT22;55274;43.060;25.618;2023-02-26T05:15:02;14.70;76.80
68354;DHT22;55274;43.060;25.618;2023-02-26T05:17:28;14.70;77.00
68354;DHT22;55274;43.060;25.618;2023-02-26T05:19:54;14.80;76.80
68354;DHT22;55274;43.060;25.618;2023-02-26T05:22:19;14.80;77.20
68354;DHT22;55274;43.060;25.618;2023-02-26T05:24:45;14.80;77.10
68354;DHT22;55274;43.060;25.618;2023-02-26T05:27:14;14.80;77.10
68354;DHT22;55274;43.060;25.618;2023-02-26T05:29:40;14.80;77.00
68354;DHT22;55274;43.060;25.618;2023-02-26T05:32:09;14.90;77.20
68354;DHT22;55274;43.060;25.618;2023-02-26T05:34:35;14.80;77.10
68354;DHT22;55274;43.060;25.618;2023-02-26T05:37:01;14.90;77.00
68354;DHT22;55274;43.060;25.618;2023-02-26T05:39:28;14.90;77.10
68354;DHT22;55274;43.060;25.618;2023-02-26T05:41:54;15.00;76.80
68354;DHT22;55274;43.060;25.618;2023-02-26T05:44:22;15.00;76.60
68354;DHT22;55274;43.060;25.618;2023-02-26T05:46:48;15.00;76.60
68354;DHT22;55274;43.060;25.618;2023-02-26T05:49:13;15.00;76.40
68354;DHT22;55274;43.060;25.618;2023-02-26T05:51:39;15.00;76.30
68354;DHT22;55274;43.060;25.618;2023-02-26T05:54:08;15.10;76.40
68354;DHT22;55274;43.060;25.618;2023-02-26T05:56:34;15.10;76.10
68354;DHT22;55274;43.060;25.618;2023-02-26T05:59:00;15.10;76.10
68354;DHT22;55274;43.060;25.618;2023-02-26T06:01:25;15.10;76.30
68354;DHT22;55274;43.060;25.618;2023-02-26T06:03:51;15.10;76.40
68354;DHT22;55274;43.060;25.618;2023-02-26T06:06:17;15.20;76.60
68354;DHT22;55274;43.060;25.618;2023-02-26T06:08:44;15.10;76.80
68354;DHT22;55274;43.060;25.618;2023-02-26T06:11:10;15.20;77.00
68354;DHT22;55274;43.060;25.618;2023-02-26T06:13:37;15.20;77.10
68354;DHT22;55274;43.060;25.618;2023-02-26T06:16:03;15.20;77.30
68354;DHT22;55274;43.060;25.618;2023-02-26T06:18:29;15.30;77.80
68354;DHT22;55274;43.060;25.618;2023-02-26T06:20:56;15.20;77.80
68354;DHT22;55274;43.060;25.618;2023-02-26T06:23:23;15.20;78.20
68354;DHT22;55274;43.060;25.618;2023-02-26T06:25:52;15.20;78.60
68354;DHT22;55274;43.060;25.618;2023-02-26T06:28:18;15.30;79.00
68354;DHT22;55274;43.060;25.618;2023-02-26T06:30:45;15.30;79.30
68354;DHT22;55274;43.060;25.618;2023-02-26T06:33:11;15.30;79.40
68354;DHT22;55274;43.060;25.618;2023-02-26T06:35:37;15.30;79.90
68354;DHT22;55274;43.060;25.618;2023-02-26T06:38:03;15.30;80.00
68354;DHT22;55274;43.060;25.618;2023-02-26T06:40:29;15.30;80.00
68354;DHT22;55274;43.060;25.618;2023-02-26T06:42:55;15.40;80.10
68354;DHT22;55274;43.060;25.618;2023-02-26T06:45:22;15.30;80.30
68354;DHT22;55274;43.060;25.618;2023-02-26T06:47:50;15.30;80.30
68354;DHT22;55274;43.060;25.618;2023-02-26T06:50:16;15.40;80.30
68354;DHT22;55274;43.060;25.618;2023-02-26T06:52:41;15.40;80.30
68354;DHT22;55274;43.060;25.618;2023-02-26T06:55:08;15.40;80.20
68354;DHT22;55274;43.060;25.618;2023-02-26T06:57:33;15.40;79.90
68354;DHT22;55274;43.060;25.618;2023-02-26T06:59:59;15.50;79.80
68354;DHT22;55274;43.060;25.618;2023-02-26T07:02:25;15.50;79.90
68354;DHT22;55274;43.060;25.618;2023-02-26T07:04:51;15.50;79.80
68354;DHT22;55274;43.060;25.618;2023-02-26T07:07:17;15.60;79.80
68354;DHT22;55274;43.060;25.618;2023-02-26T07:09:44;15.70;79.30
68354;DHT22;55274;43.060;25.618;2023-02-26T07:12:09;15.70;79.10
68354;DHT22;55274;43.060;25.618;2023-02-26T07:14:36;15.70;79.10
68354;DHT22;55274;43.060;25.618;2023-02-26T07:17:02;15.80;78.30
68354;DHT22;55274;43.060;25.618;2023-02-26T07:19:29;15.90;77.90
68354;DHT22;55274;43.060;25.618;2023-02-26T07:21:55;16.00;77.60
68354;DHT22;55274;43.060;25.618;2023-02-26T07:24:21;16.00;77.80
68354;DHT22;55274;43.060;25.618;2023-02-26T07:26:47;16.00;77.70
68354;DHT22;55274;43.060;25.618;2023-02-26T07:29:13;16.10;77.40
68354;DHT22;55274;43.060;25.618;2023-02-26T07:31:39;16.10;77.30
68354;DHT22;55274;43.060;25.618;2023-02-26T07:34:04;16.10;77.40
68354;DHT22;55274;43.060;25.618;2023-02-26T07:36:31;16.20;77.30
68354;DHT22;55274;43.060;25.618;2023-02-26T07:38:57;16.20;77.20
68354;DHT22;55274;43.060;25.618;2023-02-26T07:41:23;16.20;76.90
68354;DHT22;55274;43.060;25.618;2023-02-26T07:43:49;16.30;76.90
68354;DHT22;55274;43.060;25.618;2023-02-26T07:46:15;16.30;76.60
68354;DHT22;55274;43.060;25.618;2023-02-26T07:48:40;16.40;76.30
68354;DHT22;55274;43.060;25.618;2023-02-26T07:51:06;16.40;76.00
68354;DHT22;55274;43.060;25.618;2023-02-26T07:53:33;16.50;75.70
68354;DHT22;55274;43.060;25.618;2023-02-26T07:55:59;16.50;75.20
68354;DHT22;55274;43.060;25.618;2023-02-26T07:58:25;16.60;74.30
68354;DHT22;55274;43.060;25.618;2023-02-26T08:00:51;16.70;74.10
68354;DHT22;55274;43.060;25.618;2023-02-26T08:03:18;16.70;73.30
68354;DHT22;55274;43.060;25.618;2023-02-26T08:05:44;16.80;72.50
68354;DHT22;55274;43.060;25.618;2023-02-26T08:08:10;16.90;72.30
68354;DHT22;55274;43.060;25.618;2023-02-26T08:10:36;17.00;72.10
68354;DHT22;55274;43.060;25.618;2023-02-26T08:13:04;17.10;71.50
68354;DHT22;55274;43.060;25.618;2023-02-26T08:15:29;17.10;71.00
68354;DHT22;55274;43.060;25.618;2023-02-26T08:17:55;17.10;71.00
68354;DHT22;55274;43.060;25.618;2023-02-26T08:20:22;17.20;70.90
68354;DHT22;55274;43.060;25.618;2023-02-26T08:22:49;17.30;70.90
68354;DHT22;55274;43.060;25.618;2023-02-26T08:25:15;17.30;70.50
68354;DHT22;55274;43.060;25.618;2023-02-26T08:27:41;17.30;70.00
68354;DHT22;55274;43.060;25.618;2023-02-26T08:30:08;17.40;69.90
68354;DHT22;55274;43.060;25.618;2023-02-26T08:32:34;17.50;69.50
68354;DHT22;55274;43.060;25.618;2023-02-26T08:35:00;17.50;69.20
68354;DHT22;55274;43.060;25.618;2023-02-26T08:37:26;17.70;68.70
68354;DHT22;55274;43.060;25.618;2023-02-26T08:39:52;17.70;68.40
68354;DHT22;55274;43.060;25.618;2023-02-26T08:42:18;17.80;67.80
68354;DHT22;55274;43.060;25.618;2023-02-26T08:44:45;17.80;67.40
68354;DHT22;55274;43.060;25.618;2023-02-26T08:47:12;17.90;67.30
68354;DHT22;55274;43.060;25.618;2023-02-26T08:49:38;18.00;67.50
68354;DHT22;55274;43.060;25.618;2023-02-26T08:52:03;18.00;66.60
68354;DHT22;55274;43.060;25.618;2023-02-26T08:54:29;18.10;66.50
68354;DHT22;55274;43.060;25.618;2023-02-26T08:56:56;18.10;66.40
68354;DHT22;55274;43.060;25.618;2023-02-26T08:59:25;18.10;66.00
68354;DHT22;55274;43.060;25.618;2023-02-26T09:01:51;18.20;66.10
68354;DHT22;55274;43.060;25.618;2023-02-26T09:04:17;18.20;64.60
68354;DHT22;55274;43.060;25.618;2023-02-26T09:06:43;18.30;64.90
68354;DHT22;55274;43.060;25.618;2023-02-26T09:09:09;18.40;64.60
68354;DHT22;55274;43.060;25.618;2023-02-26T09:11:35;18.50;63.30
68354;DHT22;55274;43.060;25.618;2023-02-26T09:14:02;18.50;63.40
68354;DHT22;55274;43.060;25.618;2023-02-26T09:16:28;18.50;63.40
68354;DHT22;55274;43.060;25.618;2023-02-26T09:18:55;18.50;63.60
68354;DHT22;55274;43.060;25.618;2023-02-26T09:21:21;18.50;64.00
68354;DHT22;55274;43.060;25.618;2023-02-26T09:23:47;18.60;63.40
68354;DHT22;55274;43.060;25.618;2023-02-26T09:26:13;18.70;63.30
68354;DHT22;55274;43.060;25.618;2023-02-26T09:28:39;18.70;63.30
68354;DHT22;55274;43.060;25.618;2023-02-26T09:31:05;18.70;62.10
68354;DHT22;55274;43.060;25.618;2023-02-26T09:33:34;18.80;61.80
68354;DHT22;55274;43.060;25.618;2023-02-26T09:36:01;18.80;62.30
68354;DHT22;55274;43.060;25.618;2023-02-26T09:38:27;18.80;61.60
68354;DHT22;55274;43.060;25.618;2023-02-26T09:47:24;19.00;62.10
68354;DHT22;55274;43.060;25.618;2023-02-26T09:53:09;19.00;60.90
68354;DHT22;55274;43.060;25.618;2023-02-26T09:55:45;19.00;60.50
68354;DHT22;55274;43.060;25.618;2023-02-26T09:58:28;19.10;60.90
68354;DHT22;55274;43.060;25.618;2023-02-26T10:04:10;19.10;59.80
68354;DHT22;55274;43.060;25.618;2023-02-26T10:12:08;19.20;60.20
68354;DHT22;55274;43.060;25.618;2023-02-26T10:14:43;19.30;60.50
68354;DHT22;55274;43.060;25.618;2023-02-26T10:17:31;19.40;60.20
68354;DHT22;55274;43.060;25.618;2023-02-26T10:20:18;19.30;60.10
68354;DHT22;55274;43.060;25.618;2023-02-26T10:25:39;19.40;59.30
68354;DHT22;55274;43.060;25.618;2023-02-26T10:31:06;19.50;58.50
68354;DHT22;55274;43.060;25.618;2023-02-26T10:36:27;19.40;58.90
68354;DHT22;55274;43.060;25.618;2023-02-26T10:39:11;19.40;58.90
68354;DHT22;55274;43.060;25.618;2023-02-26T10:41:40;19.20;59.70
68354;DHT22;55274;43.060;25.618;2023-02-26T10:44:24;19.30;59.30
68354;DHT22;55274;43.060;25.618;2023-02-26T10:47:17;19.30;59.30
68354;DHT22;55274;43.060;25.618;2023-02-26T10:50:10;19.40;59.30
68354;DHT22;55274;43.060;25.618;2023-02-26T10:52:37;19.20;59.00
68354;DHT22;55274;43.060;25.618;2023-02-26T10:55:18;19.30;59.60
68354;DHT22;55274;43.060;25.618;2023-02-26T10:57:59;19.40;59.10
68354;DHT22;55274;43.060;25.618;2023-02-26T11:00:27;19.20;59.90
68354;DHT22;55274;43.060;25.618;2023-02-26T11:02:53;19.20;60.10
68354;DHT22;55274;43.060;25.618;2023-02-26T11:05:23;19.10;59.80
68354;DHT22;55274;43.060;25.618;2023-02-26T11:07:54;19.00;60.00
68354;DHT22;55274;43.060;25.618;2023-02-26T11:10:23;19.10;60.00
68354;DHT22;55274;43.060;25.618;2023-02-26T11:12:50;19.10;59.90
68354;DHT22;55274;43.060;25.618;2023-02-26T11:15:24;19.10;59.60
68354;DHT22;55274;43.060;25.618;2023-02-26T11:17:53;19.10;59.80
68354;DHT22;55274;43.060;25.618;2023-02-26T11:22:52;19.20;59.90
68354;DHT22;55274;43.060;25.618;2023-02-26T11:25:23;19.10;59.90
68354;DHT22;55274;43.060;25.618;2023-02-26T11:28:03;19.20;59.50
68354;DHT22;55274;43.060;25.618;2023-02-26T11:30:33;19.20;59.60
68354;DHT22;55274;43.060;25.618;2023-02-26T11:33:50;19.20;59.80
68354;DHT22;55274;43.060;25.618;2023-02-26T11:35:58;19.30;59.00
68354;DHT22;55274;43.060;25.618;2023-02-26T11:38:25;19.40;58.70
68354;DHT22;55274;43.060;25.618;2023-02-26T11:40:55;19.40;58.50
68354;DHT22;55274;43.060;25.618;2023-02-26T11:43:22;19.60;58.30
68354;DHT22;55274;43.060;25.618;2023-02-26T11:45:56;19.40;58.40
68354;DHT22;55274;43.060;25.618;2023-02-26T11:48:25;19.40;58.10
68354;DHT22;55274;43.060;25.618;2023-02-26T11:50:59;19.30;58.40
68354;DHT22;55274;43.060;25.618;2023-02-26T11:53:36;19.40;57.90
68354;DHT22;55274;43.060;25.618;2023-02-26T11:56:30;19.40;57.40
68354;DHT22;55274;43.060;25.618;2023-02-26T11:59:01;19.40;57.40
68354;DHT22;55274;43.060;25.618;2023-02-26T12:01:28;19.40;57.50
68354;DHT22;55274;43.060;25.618;2023-02-26T12:03:59;19.40;57.50
68354;DHT22;55274;43.060;25.618;2023-02-26T12:06:25;19.40;57.50
68354;DHT22;55274;43.060;25.618;2023-02-26T12:08:51;19.30;57.60
68354;DHT22;55274;43.060;25.618;2023-02-26T12:14:07;19.40;57.50
68354;DHT22;55274;43.060;25.618;2023-02-26T12:24:56;19.40;57.40
68354;DHT22;55274;43.060;25.618;2023-02-26T12:28:36;19.40;57.20
68354;DHT22;55274;43.060;25.618;2023-02-26T12:39:02;19.10;57.50
68354;DHT22;55274;43.060;25.618;2023-02-26T12:43:55;19.10;58.10
68354;DHT22;55274;43.060;25.618;2023-02-26T12:54:29;18.80;58.50
68354;DHT22;55274;43.060;25.618;2023-02-26T13:07:47;18.50;60.00
68354;DHT22;55274;43.060;25.618;2023-02-26T13:13:17;18.50;60.30
68354;DHT22;55274;43.060;25.618;2023-02-26T13:21:29;18.70;59.40
68354;DHT22;55274;43.060;25.618;2023-02-26T13:24:03;18.80;59.00
68354;DHT22;55274;43.060;25.618;2023-02-26T13:26:32;18.90;59.20
68354;DHT22;55274;43.060;25.618;2023-02-26T13:29:10;18.90;59.00
68354;DHT22;55274;43.060;25.618;2023-02-26T13:31:42;18.90;58.80
68354;DHT22;55274;43.060;25.618;2023-02-26T13:34:25;18.90;58.70
68354;DHT22;55274;43.060;25.618;2023-02-26T13:36:54;18.90;58.00
68354;DHT22;55274;43.060;25.618;2023-02-26T13:51:26;18.70;58.70
68354;DHT22;55274;43.060;25.618;2023-02-26T13:53:58;18.70;59.10
68354;DHT22;55274;43.060;25.618;2023-02-26T13:59:23;18.60;59.60
68354;DHT22;55274;43.060;25.618;2023-02-26T14:01:55;18.50;59.70
68354;DHT22;55274;43.060;25.618;2023-02-26T14:06:59;18.40;59.70
68354;DHT22;55274;43.060;25.618;2023-02-26T14:17:48;18.30;60.50
68354;DHT22;55274;43.060;25.618;2023-02-26T14:20:16;18.30;60.00
68354;DHT22;55274;43.060;25.618;2023-02-26T14:22:46;18.30;59.80
68354;DHT22;55274;43.060;25.618;2023-02-26T14:25:20;18.20;59.70
68354;DHT22;55274;43.060;25.618;2023-02-26T14:30:49;18.20;60.10
68354;DHT22;55274;43.060;25.618;2023-02-26T14:33:18;18.20;60.10
68354;DHT22;55274;43.060;25.618;2023-02-26T14:35:47;18.10;60.20
68354;DHT22;55274;43.060;25.618;2023-02-26T14:38:17;18.10;60.10
68354;DHT22;55274;43.060;25.618;2023-02-26T14:46:03;18.10;59.80
68354;DHT22;55274;43.060;25.618;2023-02-26T14:48:30;18.10;59.80
68354;DHT22;55274;43.060;25.618;2023-02-26T14:51:22;18.10;60.00
68354;DHT22;55274;43.060;25.618;2023-02-26T14:57:10;18.00;59.60
68354;DHT22;55274;43.060;25.618;2023-02-26T14:59:51;18.00;59.60
68354;DHT22;55274;43.060;25.618;2023-02-26T15:02:29;18.00;59.70
68354;DHT22;55274;43.060;25.618;2023-02-26T15:08:56;17.90;60.10
68354;DHT22;55274;43.060;25.618;2023-02-26T15:11:25;17.90;60.30
68354;DHT22;55274;43.060;25.618;2023-02-26T15:14:17;17.90;60.30
68354;DHT22;55274;43.060;25.618;2023-02-26T15:16:54;17.80;60.30
68354;DHT22;55274;43.060;25.618;2023-02-26T15:24:42;17.70;61.10
68354;DHT22;55274;43.060;25.618;2023-02-26T15:27:14;17.50;61.50
68354;DHT22;55274;43.060;25.618;2023-02-26T15:29:41;17.50;61.50
68354;DHT22;55274;43.060;25.618;2023-02-26T15:32:23;17.50;61.60
68354;DHT22;55274;43.060;25.618;2023-02-26T15:35:13;17.40;61.50
68354;DHT22;55274;43.060;25.618;2023-02-26T15:37:40;17.40;61.90
68354;DHT22;55274;43.060;25.618;2023-02-26T15:40:07;17.40;62.40
68354;DHT22;55274;43.060;25.618;2023-02-26T15:42:38;17.30;62.10
68354;DHT22;55274;43.060;25.618;2023-02-26T15:47:56;17.30;62.30
68354;DHT22;55274;43.060;25.618;2023-02-26T15:50:30;17.20;62.30
68354;DHT22;55274;43.060;25.618;2023-02-26T15:53:00;17.20;62.50
68354;DHT22;55274;43.060;25.618;2023-02-26T15:55:31;17.10;63.00
68354;DHT22;55274;43.060;25.618;2023-02-26T15:57:59;17.10;62.80
68354;DHT22;55274;43.060;25.618;2023-02-26T16:00:25;17.10;63.30
68354;DHT22;55274;43.060;25.618;2023-02-26T16:02:55;17.00;63.30
68354;DHT22;55274;43.060;25.618;2023-02-26T16:05:25;16.90;63.90
68354;DHT22;55274;43.060;25.618;2023-02-26T16:07:51;16.90;63.90
68354;DHT22;55274;43.060;25.618;2023-02-26T16:10:37;16.90;64.10
68354;DHT22;55274;43.060;25.618;2023-02-26T16:13:06;16.90;64.20
68354;DHT22;55274;43.060;25.618;2023-02-26T16:15:37;16.90;64.40
68354;DHT22;55274;43.060;25.618;2023-02-26T16:18:07;16.80;64.60
68354;DHT22;55274;43.060;25.618;2023-02-26T16:20:43;16.90;64.50
68354;DHT22;55274;43.060;25.618;2023-02-26T16:23:22;16.80;64.90
68354;DHT22;55274;43.060;25.618;2023-02-26T16:25:59;16.80;65.30
68354;DHT22;55274;43.060;25.618;2023-02-26T16:28:35;16.80;65.20
68354;DHT22;55274;43.060;25.618;2023-02-26T16:31:16;16.80;65.60
68354;DHT22;55274;43.060;25.618;2023-02-26T16:36:19;16.70;66.10
68354;DHT22;55274;43.060;25.618;2023-02-26T16:41:36;16.70;66.30
68354;DHT22;55274;43.060;25.618;2023-02-26T16:46:57;16.70;66.60
68354;DHT22;55274;43.060;25.618;2023-02-26T16:49:32;16.70;67.00
68354;DHT22;55274;43.060;25.618;2023-02-26T16:51:59;16.60;67.10
68354;DHT22;55274;43.060;25.618;2023-02-26T16:54:34;16.60;66.80
68354;DHT22;55274;43.060;25.618;2023-02-26T16:57:17;16.60;66.80
68354;DHT22;55274;43.060;25.618;2023-02-26T16:59:51;16.60;67.00
68354;DHT22;55274;43.060;25.618;2023-02-26T17:02:26;16.60;67.30
68354;DHT22;55274;43.060;25.618;2023-02-26T17:04:58;16.50;67.80
68354;DHT22;55274;43.060;25.618;2023-02-26T17:07:34;16.50;67.50
68354;DHT22;55274;43.060;25.618;2023-02-26T17:10:22;16.50;67.50
68354;DHT22;55274;43.060;25.618;2023-02-26T17:12:51;16.50;67.50
68354;DHT22;55274;43.060;25.618;2023-02-26T17:15:26;16.40;67.70
68354;DHT22;55274;43.060;25.618;2023-02-26T17:17:52;16.40;67.90
68354;DHT22;55274;43.060;25.618;2023-02-26T17:20:25;16.40;68.10
68354;DHT22;55274;43.060;25.618;2023-02-26T17:22:52;16.30;68.20
68354;DHT22;55274;43.060;25.618;2023-02-26T17:25:19;16.20;68.60
68354;DHT22;55274;43.060;25.618;2023-02-26T17:27:46;16.20;68.60
68354;DHT22;55274;43.060;25.618;2023-02-26T17:30:14;16.20;68.60
68354;DHT22;55274;43.060;25.618;2023-02-26T17:32:41;16.20;68.30
68354;DHT22;55274;43.060;25.618;2023-02-26T17:35:10;16.20;68.60
68354;DHT22;55274;43.060;25.618;2023-02-26T17:37:36;16.20;68.60
68354;DHT22;55274;43.060;25.618;2023-02-26T17:40:13;16.20;68.70
68354;DHT22;55274;43.060;25.618;2023-02-26T17:42:41;16.20;68.70
68354;DHT22;55274;43.060;25.618;2023-02-26T17:45:07;16.10;68.80
68354;DHT22;55274;43.060;25.618;2023-02-26T17:47:33;16.20;68.80
68354;DHT22;55274;43.060;25.618;2023-02-26T17:49:59;16.20;68.60
68354;DHT22;55274;43.060;25.618;2023-02-26T17:52:25;16.20;68.40
68354;DHT22;55274;43.060;25.618;2023-02-26T17:54:51;16.20;68.30
68354;DHT22;55274;43.060;25.618;2023-02-26T17:57:20;16.10;68.60
68354;DHT22;55274;43.060;25.618;2023-02-26T17:59:46;16.20;68.50
68354;DHT22;55274;43.060;25.618;2023-02-26T18:02:21;16.20;68.40
68354;DHT22;55274;43.060;25.618;2023-02-26T18:04:47;16.10;68.70
68354;DHT22;55274;43.060;25.618;2023-02-26T18:07:15;16.10;68.70
68354;DHT22;55274;43.060;25.618;2023-02-26T18:09:43;16.10;69.00
68354;DHT22;55274;43.060;25.618;2023-02-26T18:12:19;16.00;69.00
68354;DHT22;55274;43.060;25.618;2023-02-26T18:14:46;16.00;68.80
68354;DHT22;55274;43.060;25.618;2023-02-26T18:17:14;16.00;69.10
68354;DHT22;55274;43.060;25.618;2023-02-26T18:19:41;16.10;69.00
68354;DHT22;55274;43.060;25.618;2023-02-26T18:22:17;16.10;69.40
68354;DHT22;55274;43.060;25.618;2023-02-26T18:24:44;16.10;69.30
68354;DHT22;55274;43.060;25.618;2023-02-26T18:27:14;16.10;69.50
68354;DHT22;55274;43.060;25.618;2023-02-26T18:29:41;16.10;69.90